Time;durP1;ratioP1;P1;durP2;ratioP2;P2;SDS_P1;SDS_P2;PMS_P1;PMS_P2;Temp;Humidity;BMP_temperature;BMP_pressure;BME280_temperature;BME280_humidity;BME280_pressure;Samples;Min_cycle;Max_cycle;Signal;HPM_P1;HPM_P2
2022/05/25 00:01:12;;;;;;;1.70;1.10;;;;;;;;;;5053423;28;20433;-79
2022/05/25 00:03:39;;;;;;;1.47;1.00;;;;;;;;;;5053035;28;20852;-79
2022/05/25 00:06:08;;;;;;;2.07;0.80;;;;;;;;;;5053076;28;21024;-77
2022/05/25 00:08:35;;;;;;;4.10;1.30;;;;;;;;;;5054200;28;20461;-78
2022/05/25 00:11:02;;;;;;;1.30;1.00;;;;;;;;;;5061762;28;20528;-78
2022/05/25 00:13:31;;;;;;;1.00;0.90;;;;;;;;;;5053349;28;20459;-79
2022/05/25 00:15:58;;;;;;;1.60;1.50;;;;;;;;;;5053304;28;20476;-79
2022/05/25 00:18:25;;;;;;;3.03;0.90;;;;;;;;;;5052994;28;20485;-78
2022/05/25 00:20:51;;;;;;;1.00;0.90;;;;;;;;;;5061823;28;20480;-78
2022/05/25 00:23:18;;;;;;;1.20;1.03;;;;;;;;;;5069909;28;20453;-78
2022/05/25 00:25:46;;;;;;;1.10;0.90;;;;;;;;;;5068162;28;20433;-77
2022/05/25 00:28:13;;;;;;;1.03;0.80;;;;;;;;;;5067499;28;20462;-78
2022/05/25 00:30:43;;;;;;;0.90;0.90;;;;;;;;;;5067289;28;20438;-78
2022/05/25 00:33:11;;;;;;;1.13;0.90;;;;;;;;;;5066762;28;20442;-77
2022/05/25 00:35:38;;;;;;;0.90;0.90;;;;;;;;;;5064453;28;20801;-79
2022/05/25 00:38:06;;;;;;;1.20;1.20;;;;;;;;;;5053163;28;21029;-78
2022/05/25 00:40:35;;;;;;;1.37;1.27;;;;;;;;;;5053634;28;20941;-79
2022/05/25 00:43:02;;;;;;;0.93;0.90;;;;;;;;;;5053570;28;20484;-78
2022/05/25 00:45:30;;;;;;;1.10;1.00;;;;;;;;;;5053420;28;20441;-79
2022/05/25 00:47:59;;;;;;;1.67;1.20;;;;;;;;;;5052951;28;20461;-78
2022/05/25 00:50:26;;;;;;;3.53;1.40;;;;;;;;;;5053280;28;20454;-78
2022/05/25 00:52:54;;;;;;;1.27;1.17;;;;;;;;;;5052894;28;20477;-79
2022/05/25 00:55:26;;;;;;;2.50;1.00;;;;;;;;;;5052926;28;20457;-79
2022/05/25 00:57:55;;;;;;;0.93;0.93;;;;;;;;;;5052681;28;20574;-78
2022/05/25 01:00:23;;;;;;;1.50;1.10;;;;;;;;;;5052718;28;20480;-79
2022/05/25 01:02:53;;;;;;;1.00;1.00;;;;;;;;;;5053032;28;20870;-79
2022/05/25 01:05:23;;;;;;;1.10;1.10;;;;;;;;;;5051980;28;20533;-79
2022/05/25 01:07:56;;;;;;;1.30;1.20;;;;;;;;;;5052125;28;20500;-79
2022/05/25 01:10:32;;;;;;;0.90;0.90;;;;;;;;;;5051947;28;20409;-79
2022/05/25 01:13:09;;;;;;;1.93;1.27;;;;;;;;;;5052063;28;20528;-78
2022/05/25 01:15:43;;;;;;;2.60;1.03;;;;;;;;;;5051693;28;20429;-78
2022/05/25 01:18:15;;;;;;;1.03;1.00;;;;;;;;;;5051940;28;20989;-79
2022/05/25 01:20:45;;;;;;;1.00;1.00;;;;;;;;;;5052042;28;20834;-79
2022/05/25 01:23:28;;;;;;;1.10;1.10;;;;;;;;;;5051663;28;20438;-79
2022/05/25 01:26:02;;;;;;;1.00;1.00;;;;;;;;;;5052076;28;20513;-79
2022/05/25 01:28:35;;;;;;;2.67;1.20;;;;;;;;;;5051809;28;20461;-79
2022/05/25 01:31:06;;;;;;;4.00;1.00;;;;;;;;;;5052000;28;20456;-79
2022/05/25 01:33:37;;;;;;;1.53;1.20;;;;;;;;;;5052411;28;20467;-79
2022/05/25 01:36:09;;;;;;;1.10;1.10;;;;;;;;;;5051873;28;20425;-78
2022/05/25 01:38:37;;;;;;;1.13;0.90;;;;;;;;;;5051370;28;20896;-78
2022/05/25 01:41:07;;;;;;;1.83;1.20;;;;;;;;;;5052554;28;20963;-80
2022/05/25 01:43:37;;;;;;;1.00;1.00;;;;;;;;;;5052229;28;20927;-78
2022/05/25 01:46:08;;;;;;;0.90;0.90;;;;;;;;;;5051841;28;20549;-79
2022/05/25 01:48:36;;;;;;;2.00;1.10;;;;;;;;;;5052593;28;20604;-78
2022/05/25 01:51:05;;;;;;;1.27;1.17;;;;;;;;;;5054480;28;20819;-78
2022/05/25 01:53:34;;;;;;;0.93;0.90;;;;;;;;;;5054148;28;20931;-79
2022/05/25 01:56:03;;;;;;;1.30;1.20;;;;;;;;;;5052187;28;20434;-79
2022/05/25 01:58:36;;;;;;;1.00;1.00;;;;;;;;;;5051698;28;20531;-80
2022/05/25 02:01:05;;;;;;;1.33;1.23;;;;;;;;;;5051781;28;20426;-79
2022/05/25 02:06:32;;;;;;;1.60;0.90;;;;;;;;;;5054946;28;20468;-78
2022/05/25 02:09:08;;;;;;;1.37;1.00;;;;;;;;;;5053657;28;20466;-78
2022/05/25 02:11:37;;;;;;;1.50;1.40;;;;;;;;;;5053671;28;20456;-79
2022/05/25 02:14:08;;;;;;;1.83;1.10;;;;;;;;;;5054673;28;21153;-79
2022/05/25 02:16:43;;;;;;;1.50;1.40;;;;;;;;;;5054407;28;20418;-79
2022/05/25 02:19:14;;;;;;;1.10;1.10;;;;;;;;;;5051141;28;20526;-78
2022/05/25 02:21:45;;;;;;;1.20;1.10;;;;;;;;;;5054975;28;20839;-79
2022/05/25 02:24:16;;;;;;;1.27;1.17;;;;;;;;;;5054826;28;20495;-79
2022/05/25 02:26:46;;;;;;;1.30;1.20;;;;;;;;;;5055012;28;20777;-78
2022/05/25 02:29:16;;;;;;;1.57;1.17;;;;;;;;;;5055230;28;20874;-78
2022/05/25 02:31:45;;;;;;;2.00;1.27;;;;;;;;;;5054907;28;20514;-78
2022/05/25 02:34:16;;;;;;;1.17;1.13;;;;;;;;;;5055070;28;20544;-79
2022/05/25 02:36:44;;;;;;;1.47;1.20;;;;;;;;;;5055248;28;20428;-79
2022/05/25 02:39:12;;;;;;;1.63;0.93;;;;;;;;;;5054765;28;21050;-79
2022/05/25 02:41:42;;;;;;;1.00;1.00;;;;;;;;;;5054847;28;20948;-78
2022/05/25 02:44:09;;;;;;;1.30;1.30;;;;;;;;;;5054638;28;21024;-78
2022/05/25 02:46:37;;;;;;;1.90;1.10;;;;;;;;;;5054916;28;20482;-79
2022/05/25 02:49:04;;;;;;;0.90;0.90;;;;;;;;;;5055451;28;20466;-79
2022/05/25 02:51:32;;;;;;;1.17;1.10;;;;;;;;;;5061432;28;20876;-79
2022/05/25 02:53:59;;;;;;;1.90;1.00;;;;;;;;;;5061051;28;20499;-79
2022/05/25 02:56:26;;;;;;;3.40;0.93;;;;;;;;;;5055034;28;20445;-79
2022/05/25 02:58:53;;;;;;;1.50;1.20;;;;;;;;;;5054898;28;20493;-79
2022/05/25 03:01:20;;;;;;;1.13;1.13;;;;;;;;;;5055420;28;20496;-78
2022/05/25 03:03:47;;;;;;;1.57;1.30;;;;;;;;;;5054347;28;20937;-79
2022/05/25 03:06:14;;;;;;;1.87;1.20;;;;;;;;;;5054765;28;20499;-78
2022/05/25 03:08:43;;;;;;;0.83;0.83;;;;;;;;;;5054894;28;20466;-79
2022/05/25 03:11:10;;;;;;;1.53;1.10;;;;;;;;;;5054299;28;20446;-79
2022/05/25 03:13:37;;;;;;;1.57;0.90;;;;;;;;;;5054050;28;20441;-78
2022/05/25 03:16:05;;;;;;;1.60;0.80;;;;;;;;;;5054047;28;20827;-78
2022/05/25 03:18:32;;;;;;;1.17;1.07;;;;;;;;;;5054410;28;20481;-78
2022/05/25 03:20:59;;;;;;;1.23;1.13;;;;;;;;;;5056503;28;20445;-79
2022/05/25 03:23:26;;;;;;;1.10;1.10;;;;;;;;;;5061591;28;20465;-79
2022/05/25 03:25:54;;;;;;;1.00;1.00;;;;;;;;;;5060904;28;20495;-78
2022/05/25 03:28:22;;;;;;;1.20;1.20;;;;;;;;;;5062105;28;20489;-79
2022/05/25 03:30:49;;;;;;;1.43;1.13;;;;;;;;;;5054093;28;20504;-79
2022/05/25 03:33:16;;;;;;;1.80;1.00;;;;;;;;;;5052949;28;20941;-79
2022/05/25 03:35:43;;;;;;;1.00;1.00;;;;;;;;;;5055552;28;20464;-79
2022/05/25 03:38:11;;;;;;;1.10;1.10;;;;;;;;;;5054652;28;20566;-78
2022/05/25 03:40:38;;;;;;;1.67;1.10;;;;;;;;;;5053215;28;20889;-78
2022/05/25 03:43:07;;;;;;;1.00;1.00;;;;;;;;;;5053228;28;20857;-79
2022/05/25 03:45:34;;;;;;;1.10;1.10;;;;;;;;;;5053745;28;20433;-79
2022/05/25 03:48:01;;;;;;;1.13;1.10;;;;;;;;;;5053464;28;21028;-79
2022/05/25 03:50:30;;;;;;;1.10;1.10;;;;;;;;;;5053335;28;20864;-79
2022/05/25 03:52:57;;;;;;;0.97;0.90;;;;;;;;;;5053921;28;20510;-79
2022/05/25 03:55:24;;;;;;;0.90;0.90;;;;;;;;;;5053511;28;20445;-78
2022/05/25 03:57:51;;;;;;;1.60;1.20;;;;;;;;;;5053388;28;20512;-79
2022/05/25 04:00:20;;;;;;;1.10;1.00;;;;;;;;;;5053552;28;20941;-79
2022/05/25 04:02:48;;;;;;;1.17;1.10;;;;;;;;;;5053297;28;20446;-78
2022/05/25 04:05:15;;;;;;;1.43;1.30;;;;;;;;;;5054051;28;20564;-79
2022/05/25 04:07:43;;;;;;;4.63;1.40;;;;;;;;;;5054728;28;20499;-79
2022/05/25 04:10:12;;;;;;;2.97;1.20;;;;;;;;;;5053767;28;20979;-79
2022/05/25 04:12:40;;;;;;;2.93;1.10;;;;;;;;;;5053135;28;20496;-79
2022/05/25 04:15:07;;;;;;;6.40;1.20;;;;;;;;;;5053617;28;20448;-78
2022/05/25 04:17:36;;;;;;;1.80;0.90;;;;;;;;;;5053423;28;20442;-79
2022/05/25 04:20:03;;;;;;;0.83;0.83;;;;;;;;;;5052888;28;20442;-78
2022/05/25 04:22:32;;;;;;;1.10;1.10;;;;;;;;;;5040241;28;20434;-77
2022/05/25 04:24:59;;;;;;;2.27;1.10;;;;;;;;;;5054162;28;20452;-78
2022/05/25 04:27:26;;;;;;;1.23;1.00;;;;;;;;;;5056364;28;20518;-77
2022/05/25 04:29:53;;;;;;;1.93;1.20;;;;;;;;;;5056192;28;20511;-79
2022/05/25 04:32:20;;;;;;;1.90;1.10;;;;;;;;;;5054102;28;20932;-77
2022/05/25 04:34:49;;;;;;;1.30;1.30;;;;;;;;;;5055855;28;20465;-77
2022/05/25 04:40:00;;;;;;;1.57;1.20;;;;;;;;;;5056145;28;20421;-77
2022/05/25 04:42:29;;;;;;;1.33;1.23;;;;;;;;;;5054526;28;20434;-78
2022/05/25 04:44:59;;;;;;;1.43;1.33;;;;;;;;;;5054774;28;20450;-79
2022/05/25 04:47:26;;;;;;;1.73;1.63;;;;;;;;;;5055340;28;20445;-79
2022/05/25 04:49:55;;;;;;;1.03;1.03;;;;;;;;;;5056062;28;20517;-79
2022/05/25 04:52:22;;;;;;;1.67;1.57;;;;;;;;;;5055336;28;20513;-79
2022/05/25 04:54:49;;;;;;;1.33;1.30;;;;;;;;;;5055442;28;21013;-80
2022/05/25 04:57:22;;;;;;;1.20;1.10;;;;;;;;;;5055773;28;20495;-79
2022/05/25 04:59:50;;;;;;;1.30;1.00;;;;;;;;;;5059489;28;20492;-77
2022/05/25 05:02:17;;;;;;;1.80;1.30;;;;;;;;;;5068317;28;20446;-78
2022/05/25 05:04:44;;;;;;;1.50;1.43;;;;;;;;;;5061659;28;20437;-78
2022/05/25 05:07:13;;;;;;;1.13;1.03;;;;;;;;;;5054901;28;20552;-79
2022/05/25 05:09:41;;;;;;;2.93;2.03;;;;;;;;;;5054498;28;20466;-79
2022/05/25 05:12:09;;;;;;;3.10;1.33;;;;;;;;;;5056007;28;20441;-80
2022/05/25 05:14:37;;;;;;;1.97;1.70;;;;;;;;;;5056663;28;20453;-79
2022/05/25 05:17:05;;;;;;;1.70;1.50;;;;;;;;;;5065361;28;20460;-78
2022/05/25 05:19:32;;;;;;;8.53;1.90;;;;;;;;;;5065167;28;20488;-78
2022/05/25 05:22:00;;;;;;;1.20;1.10;;;;;;;;;;5059241;28;20445;-78
2022/05/25 05:24:29;;;;;;;6.43;2.40;;;;;;;;;;5068209;28;20450;-79
2022/05/25 05:26:56;;;;;;;3.70;1.83;;;;;;;;;;5065487;28;20437;-79
2022/05/25 05:29:24;;;;;;;1.57;1.00;;;;;;;;;;5055011;28;20861;-81
2022/05/25 05:31:51;;;;;;;1.90;1.17;;;;;;;;;;5055662;28;20460;-79
2022/05/25 05:34:18;;;;;;;2.47;1.13;;;;;;;;;;5055170;28;20544;-81
2022/05/25 05:36:47;;;;;;;1.17;1.17;;;;;;;;;;5055599;28;20504;-80
2022/05/25 05:39:15;;;;;;;1.20;1.20;;;;;;;;;;5055445;28;20859;-80
2022/05/25 05:41:44;;;;;;;2.40;1.30;;;;;;;;;;5053808;28;20519;-78
2022/05/25 05:44:13;;;;;;;1.20;1.10;;;;;;;;;;5052035;28;20437;-78
2022/05/25 05:46:42;;;;;;;1.30;1.20;;;;;;;;;;5047813;28;20487;-80
2022/05/25 05:49:09;;;;;;;2.10;1.33;;;;;;;;;;5056652;28;20461;-80
2022/05/25 05:51:37;;;;;;;1.10;1.00;;;;;;;;;;5055602;28;20430;-78
2022/05/25 05:54:04;;;;;;;1.10;1.10;;;;;;;;;;5056666;28;20446;-79
2022/05/25 05:56:32;;;;;;;1.30;1.20;;;;;;;;;;5063156;28;20441;-79
2022/05/25 05:59:01;;;;;;;0.90;0.90;;;;;;;;;;5066729;28;20485;-78
2022/05/25 06:01:28;;;;;;;1.50;1.40;;;;;;;;;;5068491;28;20429;-78
2022/05/25 06:03:55;;;;;;;1.00;1.00;;;;;;;;;;5066793;28;20514;-81
2022/05/25 06:06:23;;;;;;;1.10;1.10;;;;;;;;;;5065183;28;20437;-81
2022/05/25 06:08:50;;;;;;;1.20;1.10;;;;;;;;;;5066879;28;20449;-78
2022/05/25 06:11:18;;;;;;;3.90;1.47;;;;;;;;;;5062641;28;20442;-81
2022/05/25 06:13:46;;;;;;;1.43;1.33;;;;;;;;;;5061009;28;20434;-80
2022/05/25 06:21:44;;;;;;;1.23;1.20;;;;;;;;;;5070434;28;20526;-78
2022/05/25 06:24:11;;;;;;;2.33;1.10;;;;;;;;;;5057631;28;20800;-80
2022/05/25 06:26:38;;;;;;;1.30;1.20;;;;;;;;;;5058704;28;20449;-78
2022/05/25 06:29:05;;;;;;;1.50;1.40;;;;;;;;;;5060459;28;20531;-77
2022/05/25 06:31:34;;;;;;;1.57;1.30;;;;;;;;;;5058562;28;20437;-78
2022/05/25 06:34:01;;;;;;;1.80;1.30;;;;;;;;;;5059307;28;20536;-80
2022/05/25 06:36:29;;;;;;;1.33;1.00;;;;;;;;;;5059059;28;20797;-77
2022/05/25 06:38:57;;;;;;;2.20;1.30;;;;;;;;;;5058659;28;20476;-78
2022/05/25 06:41:24;;;;;;;1.60;1.50;;;;;;;;;;5056797;28;20476;-79
2022/05/25 06:43:51;;;;;;;1.13;1.07;;;;;;;;;;5058446;28;20442;-79
2022/05/25 06:46:19;;;;;;;1.40;1.30;;;;;;;;;;5060742;28;20445;-77
2022/05/25 06:48:47;;;;;;;1.43;1.20;;;;;;;;;;5058695;28;20493;-78
2022/05/25 06:51:15;;;;;;;1.77;1.50;;;;;;;;;;5057606;28;20517;-78
2022/05/25 06:53:42;;;;;;;2.50;1.27;;;;;;;;;;5057948;28;20445;-78
2022/05/25 06:56:09;;;;;;;2.10;1.20;;;;;;;;;;5059494;28;20863;-79
2022/05/25 06:58:37;;;;;;;1.90;1.30;;;;;;;;;;5057849;28;20531;-78
2022/05/25 07:01:05;;;;;;;2.27;1.33;;;;;;;;;;5058072;28;20449;-80
2022/05/25 07:03:32;;;;;;;1.70;1.60;;;;;;;;;;5057110;28;20446;-78
2022/05/25 07:06:03;;;;;;;2.67;1.60;;;;;;;;;;5058256;28;20441;-78
2022/05/25 07:08:30;;;;;;;4.00;1.40;;;;;;;;;;5057853;28;20523;-77
2022/05/25 07:10:57;;;;;;;1.63;1.47;;;;;;;;;;5057132;28;20441;-77
2022/05/25 07:13:25;;;;;;;1.83;1.40;;;;;;;;;;5057164;28;20441;-78
2022/05/25 07:15:55;;;;;;;2.30;1.50;;;;;;;;;;5056704;28;20888;-78
2022/05/25 07:18:22;;;;;;;2.97;1.57;;;;;;;;;;5056667;28;20516;-78
2022/05/25 07:20:49;;;;;;;1.40;1.30;;;;;;;;;;5057021;28;20441;-78
2022/05/25 07:23:19;;;;;;;1.63;1.13;;;;;;;;;;5056817;28;20449;-78
2022/05/25 07:25:46;;;;;;;1.47;1.37;;;;;;;;;;5056301;28;20442;-78
2022/05/25 07:28:13;;;;;;;1.83;1.40;;;;;;;;;;5055245;28;20869;-80
2022/05/25 07:30:40;;;;;;;2.70;1.03;;;;;;;;;;5055929;28;20945;-77
2022/05/25 07:33:08;;;;;;;1.47;1.40;;;;;;;;;;5056583;28;20495;-78
2022/05/25 07:35:35;;;;;;;3.37;1.00;;;;;;;;;;5056555;28;20995;-79
2022/05/25 07:38:03;;;;;;;1.10;1.10;;;;;;;;;;5055050;28;20529;-78
2022/05/25 07:40:33;;;;;;;1.93;1.40;;;;;;;;;;5054905;28;20481;-79
2022/05/25 07:43:02;;;;;;;1.70;1.60;;;;;;;;;;5055374;28;20940;-79
2022/05/25 07:45:29;;;;;;;1.87;1.40;;;;;;;;;;5056381;28;20450;-80
2022/05/25 07:47:56;;;;;;;1.70;1.40;;;;;;;;;;5057308;28;20783;-79
2022/05/25 07:50:24;;;;;;;1.33;0.90;;;;;;;;;;5055964;28;20438;-79
2022/05/25 07:52:52;;;;;;;1.60;1.50;;;;;;;;;;5055922;28;20449;-78
2022/05/25 07:55:19;;;;;;;4.43;1.50;;;;;;;;;;5054739;28;20892;-78
2022/05/25 07:57:48;;;;;;;1.63;1.53;;;;;;;;;;5055432;28;20472;-79
2022/05/25 08:00:16;;;;;;;2.60;1.43;;;;;;;;;;5055602;28;20481;-80
2022/05/25 08:05:47;;;;;;;1.73;1.13;;;;;;;;;;5055111;28;20501;-79
2022/05/25 08:08:15;;;;;;;2.10;1.77;;;;;;;;;;5055011;28;20464;-78
2022/05/25 08:10:44;;;;;;;1.33;1.20;;;;;;;;;;5058186;28;20441;-77
2022/05/25 08:13:13;;;;;;;1.30;1.30;;;;;;;;;;5058215;28;20441;-78
2022/05/25 08:15:42;;;;;;;2.43;1.30;;;;;;;;;;5055397;28;20517;-80
2022/05/25 08:18:10;;;;;;;1.43;1.33;;;;;;;;;;5057139;28;20462;-78
2022/05/25 08:20:37;;;;;;;3.30;1.30;;;;;;;;;;5053876;28;20577;-78
2022/05/25 08:23:05;;;;;;;1.40;1.30;;;;;;;;;;5054237;28;21008;-80
2022/05/25 08:25:32;;;;;;;1.20;1.10;;;;;;;;;;5056504;28;20441;-78
2022/05/25 08:27:59;;;;;;;1.87;1.20;;;;;;;;;;5059776;28;20470;-78
2022/05/25 08:30:27;;;;;;;3.47;1.40;;;;;;;;;;5056986;28;20469;-79
2022/05/25 08:32:55;;;;;;;2.20;1.23;;;;;;;;;;5058404;28;20735;-80
2022/05/25 08:35:22;;;;;;;3.53;1.33;;;;;;;;;;5059601;28;20956;-78
2022/05/25 08:37:49;;;;;;;1.10;1.07;;;;;;;;;;5058236;28;20471;-78
2022/05/25 08:40:18;;;;;;;1.47;1.20;;;;;;;;;;5055051;28;20488;-78
2022/05/25 08:42:49;;;;;;;2.43;1.30;;;;;;;;;;5056974;28;20465;-78
2022/05/25 08:45:17;;;;;;;1.77;1.40;;;;;;;;;;5054632;28;20430;-78
2022/05/25 08:47:48;;;;;;;0.93;0.93;;;;;;;;;;5056613;28;20881;-80
2022/05/25 08:50:15;;;;;;;1.40;1.30;;;;;;;;;;5057093;28;20442;-80
2022/05/25 08:52:42;;;;;;;1.70;1.50;;;;;;;;;;5059269;28;20437;-78
2022/05/25 08:55:11;;;;;;;1.97;1.37;;;;;;;;;;5059882;28;20437;-78
2022/05/25 08:57:42;;;;;;;1.87;1.27;;;;;;;;;;5056738;28;20453;-77
2022/05/25 09:00:13;;;;;;;1.50;1.00;;;;;;;;;;5055796;28;20488;-79
2022/05/25 09:02:46;;;;;;;3.23;1.30;;;;;;;;;;5055356;28;20448;-77
2022/05/25 09:05:18;;;;;;;1.90;1.00;;;;;;;;;;5055211;28;20933;-79
2022/05/25 09:07:50;;;;;;;0.90;0.90;;;;;;;;;;5047851;28;20499;-80
2022/05/25 09:10:17;;;;;;;1.43;1.33;;;;;;;;;;5056661;28;20439;-79
2022/05/25 09:12:46;;;;;;;2.93;1.20;;;;;;;;;;5060168;28;20519;-80
2022/05/25 09:15:17;;;;;;;1.70;1.10;;;;;;;;;;5057501;28;20446;-79
2022/05/25 09:17:46;;;;;;;2.10;1.00;;;;;;;;;;5055754;28;20453;-79
2022/05/25 09:20:16;;;;;;;2.83;1.13;;;;;;;;;;5056777;28;20987;-79
2022/05/25 09:22:43;;;;;;;4.77;1.17;;;;;;;;;;5055535;28;20445;-78
2022/05/25 09:25:11;;;;;;;4.40;1.30;;;;;;;;;;5056364;28;20449;-79
2022/05/25 09:27:40;;;;;;;3.30;1.50;;;;;;;;;;5056498;28;20450;-79
2022/05/25 09:30:08;;;;;;;2.07;1.17;;;;;;;;;;5056858;28;20472;-78
2022/05/25 09:32:39;;;;;;;1.10;1.00;;;;;;;;;;5060537;28;20437;-80
2022/05/25 09:35:09;;;;;;;2.47;1.20;;;;;;;;;;5059330;28;20484;-79
2022/05/25 09:37:40;;;;;;;0.90;0.90;;;;;;;;;;5059036;28;20507;-78
2022/05/25 09:40:11;;;;;;;1.73;1.13;;;;;;;;;;5061732;28;20481;-79
2022/05/25 09:42:38;;;;;;;1.77;0.80;;;;;;;;;;5060638;28;20957;-83
2022/05/25 09:45:09;;;;;;;4.93;1.40;;;;;;;;;;5061888;28;20457;-78
2022/05/25 09:47:41;;;;;;;1.20;1.10;;;;;;;;;;5059006;28;20800;-79
2022/05/25 09:50:09;;;;;;;1.90;1.13;;;;;;;;;;5059966;28;20917;-78
2022/05/25 09:52:41;;;;;;;3.17;1.00;;;;;;;;;;5060413;28;20478;-79
2022/05/25 09:55:14;;;;;;;2.43;1.43;;;;;;;;;;5060786;28;20512;-80
2022/05/25 09:57:45;;;;;;;0.90;0.87;;;;;;;;;;5065109;28;20466;-79
2022/05/25 10:00:17;;;;;;;2.20;0.93;;;;;;;;;;5065356;28;20610;-79
2022/05/25 10:02:49;;;;;;;1.00;1.00;;;;;;;;;;5060609;28;20949;-78
2022/05/25 10:05:17;;;;;;;1.57;0.97;;;;;;;;;;5064185;28;20508;-78
2022/05/25 10:07:51;;;;;;;1.17;0.87;;;;;;;;;;5063282;28;20483;-80
2022/05/25 10:10:24;;;;;;;1.00;0.90;;;;;;;;;;5063428;28;20839;-79
2022/05/25 10:12:59;;;;;;;1.33;0.90;;;;;;;;;;5065928;28;20460;-79
2022/05/25 10:15:30;;;;;;;1.00;0.90;;;;;;;;;;5060600;28;20451;-79
2022/05/25 10:17:59;;;;;;;1.40;1.30;;;;;;;;;;5058968;28;20457;-78
2022/05/25 10:20:28;;;;;;;1.30;1.20;;;;;;;;;;5059467;28;20477;-77
2022/05/25 10:23:01;;;;;;;2.70;0.93;;;;;;;;;;5058322;28;20507;-78
2022/05/25 10:25:31;;;;;;;1.13;0.83;;;;;;;;;;5058327;28;20437;-78
2022/05/25 10:27:59;;;;;;;1.13;1.03;;;;;;;;;;5057242;28;20547;-78
2022/05/25 10:38:47;;;;;;;1.27;0.80;;;;;;;;;;5059360;28;20445;-78
2022/05/25 10:44:03;;;;;;;1.10;0.90;;;;;;;;;;5057472;28;20421;-78
2022/05/25 10:46:31;;;;;;;1.83;0.80;;;;;;;;;;5058463;28;20515;-79
2022/05/25 10:49:02;;;;;;;0.80;0.80;;;;;;;;;;5057547;28;20467;-79
2022/05/25 10:51:32;;;;;;;0.90;0.80;;;;;;;;;;5057868;28;20456;-78
2022/05/25 10:56:54;;;;;;;1.03;0.87;;;;;;;;;;5057755;28;20507;-78
2022/05/25 10:59:25;;;;;;;1.77;1.00;;;;;;;;;;5056025;28;20523;-76
2022/05/25 11:02:03;;;;;;;1.70;0.90;;;;;;;;;;5054311;28;20799;-78
2022/05/25 11:04:57;;;;;;;0.90;0.90;;;;;;;;;;5055663;28;20430;-78
2022/05/25 11:07:28;;;;;;;2.10;0.93;;;;;;;;;;5056113;28;20442;-78
2022/05/25 11:10:10;;;;;;;5.73;0.90;;;;;;;;;;5054960;28;20442;-78
2022/05/25 11:12:44;;;;;;;1.03;0.97;;;;;;;;;;5039224;28;20450;-78
2022/05/25 11:15:15;;;;;;;1.60;1.10;;;;;;;;;;5056593;28;20429;-78
2022/05/25 11:17:49;;;;;;;0.90;0.70;;;;;;;;;;5056999;28;20441;-78
2022/05/25 11:20:20;;;;;;;1.20;1.10;;;;;;;;;;5057604;28;20889;-79
2022/05/25 11:22:52;;;;;;;3.00;1.10;;;;;;;;;;5064456;28;20452;-78
2022/05/25 11:25:40;;;;;;;0.70;0.70;;;;;;;;;;5058366;28;21015;-79
2022/05/25 11:28:17;;;;;;;1.50;0.97;;;;;;;;;;5048527;28;20473;-78
2022/05/25 11:30:53;;;;;;;1.67;0.90;;;;;;;;;;5055708;28;20844;-77
2022/05/25 11:33:27;;;;;;;1.00;0.90;;;;;;;;;;5054187;28;20495;-78
2022/05/25 11:36:01;;;;;;;1.63;0.93;;;;;;;;;;5054601;28;20507;-77
2022/05/25 11:38:39;;;;;;;0.90;0.90;;;;;;;;;;5059740;28;20540;-79
2022/05/25 11:41:12;;;;;;;1.37;0.90;;;;;;;;;;5056182;28;20800;-79
2022/05/25 11:43:52;;;;;;;2.90;1.10;;;;;;;;;;5058553;28;20450;-78
2022/05/25 11:46:23;;;;;;;2.43;1.03;;;;;;;;;;5060907;28;20449;-77
2022/05/25 11:48:58;;;;;;;3.77;1.00;;;;;;;;;;5056708;28;20468;-77
2022/05/25 11:51:28;;;;;;;3.10;0.87;;;;;;;;;;5055493;28;20436;-79
2022/05/25 11:54:08;;;;;;;3.40;0.80;;;;;;;;;;5055391;28;20441;-79
2022/05/25 11:56:49;;;;;;;1.10;0.73;;;;;;;;;;5054233;28;20516;-77
2022/05/25 11:59:27;;;;;;;1.77;1.00;;;;;;;;;;5052901;28;20469;-77
2022/05/25 12:01:57;;;;;;;1.23;0.93;;;;;;;;;;5055480;28;20481;-78
2022/05/25 12:04:34;;;;;;;1.27;0.90;;;;;;;;;;5053949;28;20503;-78
2022/05/25 12:07:09;;;;;;;2.20;0.90;;;;;;;;;;5054602;28;20521;-78
2022/05/25 12:09:42;;;;;;;0.97;0.70;;;;;;;;;;5054809;28;20542;-78
2022/05/25 12:12:12;;;;;;;2.43;1.17;;;;;;;;;;5052591;28;20480;-77
2022/05/25 12:14:46;;;;;;;1.10;1.00;;;;;;;;;;5054669;28;20831;-78
2022/05/25 12:17:18;;;;;;;1.33;0.90;;;;;;;;;;5058385;28;20445;-78
2022/05/25 12:19:46;;;;;;;5.43;1.00;;;;;;;;;;5057431;28;20560;-79
2022/05/25 12:22:16;;;;;;;0.90;0.80;;;;;;;;;;5054111;28;20484;-77
2022/05/25 12:24:44;;;;;;;1.17;1.00;;;;;;;;;;5055386;28;20491;-77
2022/05/25 12:27:13;;;;;;;1.90;1.13;;;;;;;;;;5052859;28;20477;-77
2022/05/25 12:29:42;;;;;;;1.37;0.60;;;;;;;;;;5053805;28;20461;-79
2022/05/25 12:32:10;;;;;;;0.93;0.93;;;;;;;;;;5055524;28;20489;-77
2022/05/25 12:34:40;;;;;;;3.43;0.80;;;;;;;;;;5053054;28;20937;-77
2022/05/25 12:37:08;;;;;;;1.30;1.10;;;;;;;;;;5054124;28;20450;-78
2022/05/25 12:39:59;;;;;;;2.00;1.07;;;;;;;;;;5054671;28;20461;-78
2022/05/25 12:42:40;;;;;;;1.20;0.80;;;;;;;;;;5056519;28;20434;-79
2022/05/25 12:50:42;;;;;;;1.40;0.67;;;;;;;;;;5054804;28;20796;-78
2022/05/25 12:53:20;;;;;;;2.73;0.87;;;;;;;;;;5054656;28;20849;-77
2022/05/25 12:55:54;;;;;;;1.90;0.93;;;;;;;;;;5055691;28;20445;-78
2022/05/25 12:58:33;;;;;;;1.10;0.80;;;;;;;;;;5055815;28;20549;-77
2022/05/25 13:01:04;;;;;;;4.10;0.87;;;;;;;;;;5055121;28;20500;-78
2022/05/25 13:03:39;;;;;;;1.40;0.70;;;;;;;;;;5054157;28;20449;-78
2022/05/25 13:06:06;;;;;;;2.07;0.80;;;;;;;;;;5053138;28;20453;-78
2022/05/25 13:09:10;;;;;;;1.13;0.77;;;;;;;;;;5053533;28;20529;-79
2022/05/25 13:11:42;;;;;;;1.70;0.83;;;;;;;;;;5054496;28;20491;-78
2022/05/25 13:14:24;;;;;;;6.73;2.03;;;;;;;;;;5054844;28;20952;-79
2022/05/25 13:16:52;;;;;;;1.73;0.70;;;;;;;;;;5053202;28;20944;-78
2022/05/25 13:19:22;;;;;;;1.43;0.67;;;;;;;;;;5054784;28;20548;-78
2022/05/25 13:22:14;;;;;;;1.10;0.90;;;;;;;;;;5054797;28;20523;-78
2022/05/25 13:24:56;;;;;;;1.23;0.80;;;;;;;;;;5035683;28;20917;-80
2022/05/25 13:27:32;;;;;;;1.70;0.90;;;;;;;;;;5051221;28;20493;-79
2022/05/25 13:30:06;;;;;;;1.27;0.90;;;;;;;;;;5054757;28;20833;-79
2022/05/25 13:32:39;;;;;;;3.90;0.77;;;;;;;;;;5053426;28;20453;-80
2022/05/25 13:35:15;;;;;;;2.20;0.97;;;;;;;;;;5053951;28;20458;-78
2022/05/25 13:37:42;;;;;;;1.00;0.90;;;;;;;;;;5054406;28;20498;-80
2022/05/25 13:40:10;;;;;;;1.60;1.50;;;;;;;;;;5055517;28;20499;-77
2022/05/25 13:42:39;;;;;;;1.23;0.90;;;;;;;;;;5054585;28;20489;-79
2022/05/25 13:45:08;;;;;;;1.93;0.80;;;;;;;;;;5054039;28;21086;-77
2022/05/25 13:47:35;;;;;;;0.93;0.60;;;;;;;;;;5053815;28;20437;-79
2022/05/25 13:50:02;;;;;;;1.63;0.90;;;;;;;;;;5055213;28;20442;-78
2022/05/25 13:52:31;;;;;;;13.80;1.23;;;;;;;;;;5055004;28;20434;-78
2022/05/25 13:54:59;;;;;;;0.70;0.70;;;;;;;;;;5055342;28;20445;-79
2022/05/25 13:57:32;;;;;;;2.60;0.87;;;;;;;;;;5053554;28;20442;-79
2022/05/25 14:00:02;;;;;;;2.93;1.00;;;;;;;;;;5055076;28;20832;-79
2022/05/25 14:02:31;;;;;;;0.73;0.50;;;;;;;;;;5054978;28;20520;-77
2022/05/25 14:05:01;;;;;;;1.40;0.50;;;;;;;;;;5054072;28;20829;-78
2022/05/25 14:07:37;;;;;;;0.80;0.70;;;;;;;;;;5053725;28;20496;-78
2022/05/25 14:12:52;;;;;;;2.97;0.60;;;;;;;;;;5055006;28;20464;-79
2022/05/25 14:15:21;;;;;;;1.20;1.07;;;;;;;;;;5054307;28;20857;-78
2022/05/25 14:17:58;;;;;;;1.20;0.80;;;;;;;;;;5056959;28;20972;-77
2022/05/25 14:20:25;;;;;;;2.40;0.60;;;;;;;;;;5057946;28;20452;-79
2022/05/25 14:22:54;;;;;;;1.10;0.70;;;;;;;;;;5058640;28;20442;-81
2022/05/25 14:25:25;;;;;;;3.30;1.10;;;;;;;;;;5057952;28;20848;-77
2022/05/25 14:27:52;;;;;;;1.83;0.67;;;;;;;;;;5057374;28;20458;-79
2022/05/25 14:30:21;;;;;;;1.67;0.80;;;;;;;;;;5059034;28;20437;-78
2022/05/25 14:33:00;;;;;;;2.10;0.80;;;;;;;;;;5064446;28;20479;-78
2022/05/25 14:35:27;;;;;;;1.07;0.90;;;;;;;;;;5061438;28;20452;-79
2022/05/25 14:37:57;;;;;;;2.73;0.80;;;;;;;;;;5058232;28;20476;-80
2022/05/25 14:40:28;;;;;;;0.90;0.70;;;;;;;;;;5058014;28;20449;-79
2022/05/25 14:42:56;;;;;;;1.33;0.90;;;;;;;;;;5062951;28;20524;-77
2022/05/25 14:45:24;;;;;;;1.80;0.93;;;;;;;;;;5063327;28;20450;-77
2022/05/25 14:47:52;;;;;;;1.70;0.87;;;;;;;;;;5072504;28;20469;-78
2022/05/25 14:50:21;;;;;;;0.90;0.70;;;;;;;;;;5070980;28;20544;-78
2022/05/25 14:52:51;;;;;;;1.60;0.60;;;;;;;;;;5060613;28;20875;-79
2022/05/25 14:55:23;;;;;;;7.83;0.80;;;;;;;;;;5076802;28;20437;-79
2022/05/25 14:58:00;;;;;;;1.90;0.80;;;;;;;;;;5072365;28;20424;-79
2022/05/25 15:00:27;;;;;;;0.97;0.87;;;;;;;;;;5057764;28;20805;-79
2022/05/25 15:02:59;;;;;;;1.30;0.90;;;;;;;;;;5058473;28;20473;-78
2022/05/25 15:05:27;;;;;;;1.63;0.67;;;;;;;;;;5057200;28;20484;-79
2022/05/25 15:07:55;;;;;;;0.93;0.93;;;;;;;;;;5057373;28;20462;-79
2022/05/25 15:10:29;;;;;;;1.83;0.60;;;;;;;;;;5057745;28;20453;-78
2022/05/25 15:12:56;;;;;;;2.53;0.73;;;;;;;;;;5056749;28;20721;-78
2022/05/25 15:18:31;;;;;;;1.70;1.10;;;;;;;;;;5055933;28;20433;-80
2022/05/25 15:20:59;;;;;;;1.43;0.97;;;;;;;;;;5056055;28;20460;-79
2022/05/25 15:23:28;;;;;;;2.00;0.93;;;;;;;;;;5059612;28;20445;-79
2022/05/25 15:25:56;;;;;;;1.37;1.27;;;;;;;;;;5058500;28;20794;-80
2022/05/25 15:28:31;;;;;;;2.80;0.97;;;;;;;;;;5056465;28;20457;-79
2022/05/25 15:30:59;;;;;;;0.87;0.87;;;;;;;;;;5056146;28;20445;-78
2022/05/25 15:33:27;;;;;;;1.57;0.93;;;;;;;;;;5057361;28;20840;-78
2022/05/25 15:35:59;;;;;;;1.60;0.80;;;;;;;;;;5058263;28;20453;-80
2022/05/25 15:38:27;;;;;;;1.83;0.90;;;;;;;;;;5055248;28;20596;-79